Terminal Aerodrome Forecast
Issued by NWS

Home | Current Version | Previous Version | Text Only | Print | Product List | Glossary On
Versions: 1 2 3 4 5 6 7 8 9 10 11 12 13 14 15 16 17 18 19 20 21 22 23 24
000
FTUS44 KOUN 291332 AAA
TAFLAW
TAF AMD
KLAW 291332Z 2914/3012 06014G22KT P6SM VCTS SCT015 BKN040CB
     FM291600 13008KT P6SM SCT050
     FM300100 12008KT P6SM BKN250=

USA.gov is the U.S. government's official web portal to all federal, state and local government web resources and services.